createdAt,value
2023-04-18T00:03:28.897Z,21.80
2023-04-18T00:07:28.038Z,24.00
2023-04-18T00:11:29.005Z,19.30
2023-04-18T00:15:28.277Z,21.00
2023-04-18T00:19:28.062Z,23.40
2023-04-18T00:23:29.225Z,21.70
2023-04-18T00:31:28.178Z,22.20
2023-04-18T00:35:27.890Z,20.80
2023-04-18T00:39:28.018Z,21.10
2023-04-18T00:43:27.894Z,22.20
2023-04-18T00:47:28.270Z,26.60
2023-04-18T00:51:28.060Z,22.60
2023-04-18T00:59:28.648Z,25.00
2023-04-18T01:03:28.194Z,19.70
2023-04-18T01:07:29.766Z,22.60
2023-04-18T01:11:28.259Z,23.50
2023-04-18T01:15:28.205Z,23.00
2023-04-18T01:19:28.065Z,22.30
2023-04-18T01:23:29.220Z,21.50
2023-04-18T01:35:29.062Z,23.50
2023-04-18T01:39:28.109Z,24.50
2023-04-18T01:43:28.496Z,24.60
2023-04-18T01:47:28.153Z,23.50
2023-04-18T01:51:28.256Z,22.80
2023-04-18T01:55:28.173Z,21.30
2023-04-18T01:59:28.267Z,20.40
2023-04-18T02:03:28.334Z,24.20
2023-04-18T02:07:28.244Z,22.40
2023-04-18T02:11:28.854Z,20.70
2023-04-18T02:15:28.366Z,21.70
2023-04-18T02:23:28.371Z,25.10
2023-04-18T02:27:28.150Z,26.30
2023-04-18T02:31:28.301Z,25.30
2023-04-18T02:35:28.288Z,33.60
2023-04-18T02:39:28.537Z,22.60
2023-04-18T02:47:28.488Z,27.10
2023-04-18T02:51:28.367Z,21.70
2023-04-18T02:55:29.119Z,27.30
2023-04-18T02:59:28.422Z,21.20
2023-04-18T03:03:28.727Z,20.40
2023-04-18T03:07:29.774Z,25.00
2023-04-18T03:11:28.455Z,21.60
2023-04-18T03:15:30.022Z,22.10
2023-04-18T03:19:28.609Z,26.20
2023-04-18T03:23:28.335Z,23.50
2023-04-18T03:27:28.565Z,24.10
2023-04-18T03:31:28.390Z,22.90
2023-04-18T03:35:28.600Z,22.00
2023-04-18T03:39:28.422Z,22.70
2023-04-18T03:43:28.487Z,19.40
2023-04-18T03:47:30.222Z,20.10
2023-04-18T03:51:32.421Z,20.80
2023-04-18T03:55:28.537Z,19.70
2023-04-18T03:59:28.568Z,20.40
2023-04-18T04:03:29.085Z,19.50
2023-04-18T04:07:28.879Z,22.00
2023-04-18T04:11:28.508Z,20.30
2023-04-18T04:19:28.780Z,23.10
2023-04-18T04:27:28.671Z,20.20
2023-04-18T04:31:28.592Z,20.90
2023-04-18T04:35:28.833Z,23.20
2023-04-18T04:39:28.545Z,22.40
2023-04-18T04:43:29.238Z,20.30
2023-04-18T04:47:28.635Z,21.20
2023-04-18T04:51:29.048Z,19.20
2023-04-18T04:55:28.866Z,20.50
2023-04-18T04:59:28.701Z,26.70
2023-04-18T05:03:28.854Z,18.60
2023-04-18T05:07:29.864Z,22.80
2023-04-18T05:11:28.649Z,21.80
2023-04-18T05:15:29.062Z,21.90
2023-04-18T05:19:28.793Z,22.30
2023-04-18T05:27:28.863Z,20.00
2023-04-18T05:35:30.038Z,20.60
2023-04-18T05:39:28.744Z,22.30
2023-04-18T05:43:28.915Z,24.60
2023-04-18T05:47:29.326Z,22.60
2023-04-18T05:51:28.923Z,22.80
2023-04-18T05:55:28.790Z,23.00
2023-04-18T05:59:28.923Z,24.40
2023-04-18T06:03:29.124Z,25.10
2023-04-18T06:07:28.890Z,23.90
2023-04-18T06:11:28.848Z,28.00
2023-04-18T06:15:29.059Z,24.10
2023-04-18T06:19:28.828Z,23.80
2023-04-18T06:23:29.113Z,22.00
2023-04-18T06:27:31.424Z,21.20
2023-04-18T06:31:29.302Z,21.30
2023-04-18T06:35:30.053Z,24.00
2023-04-18T06:39:29.244Z,22.30
2023-04-18T06:43:28.918Z,23.60
2023-04-18T06:47:30.184Z,21.20
2023-04-18T06:51:29.068Z,21.60
2023-04-18T06:55:29.663Z,25.30
2023-04-18T06:59:28.950Z,23.70
2023-04-18T07:03:29.111Z,23.10
2023-04-18T07:07:30.062Z,23.10
2023-04-18T07:11:29.159Z,25.40
2023-04-18T07:15:29.271Z,23.80
2023-04-18T07:19:29.212Z,23.80
2023-04-18T07:23:28.988Z,23.50
2023-04-18T07:27:29.123Z,25.60
2023-04-18T07:31:30.245Z,24.80
2023-04-18T07:39:30.955Z,25.40
2023-04-18T07:43:29.246Z,26.50
2023-04-18T07:47:30.235Z,28.80
2023-04-18T07:51:30.736Z,23.70
2023-04-18T07:55:29.679Z,21.90
2023-04-18T07:59:31.101Z,23.10
2023-04-18T08:03:29.400Z,24.00
2023-04-18T08:07:30.856Z,24.00
2023-04-18T08:15:31.375Z,20.80
2023-04-18T08:19:29.150Z,21.00
2023-04-18T08:23:29.389Z,18.10
2023-04-18T08:27:30.340Z,23.00
2023-04-18T08:31:30.577Z,18.50
2023-04-18T08:35:29.229Z,22.10
2023-04-18T08:39:30.203Z,20.20
2023-04-18T08:43:30.216Z,16.30
2023-04-18T08:47:30.108Z,20.30
2023-04-18T08:51:31.968Z,19.60
2023-04-18T08:55:29.352Z,18.30
2023-04-18T08:59:29.541Z,18.60
2023-04-18T09:03:38.730Z,19.20
2023-04-18T09:07:29.758Z,15.40
2023-04-18T09:11:30.736Z,13.90
2023-04-18T09:15:30.001Z,17.50
2023-04-18T09:19:29.494Z,19.00
2023-04-18T09:23:29.341Z,15.30
2023-04-18T09:27:33.727Z,17.30
2023-04-18T09:31:29.429Z,17.40
2023-04-18T09:35:29.537Z,18.30
2023-04-18T09:43:29.496Z,16.00
2023-04-18T09:47:31.294Z,14.40
2023-04-18T09:51:30.899Z,16.00
2023-04-18T09:55:30.936Z,13.50
2023-04-18T09:59:39.280Z,14.50
2023-04-18T10:03:33.946Z,11.60
2023-04-18T10:07:30.704Z,14.00
2023-04-18T10:11:30.349Z,15.60
2023-04-18T10:15:30.830Z,12.90
2023-04-18T10:19:29.769Z,13.50
2023-04-18T10:23:34.020Z,20.00
2023-04-18T10:27:49.488Z,14.20
2023-04-18T10:31:38.170Z,12.60
2023-04-18T10:35:29.579Z,14.80
2023-04-18T10:39:29.977Z,10.80
2023-04-18T10:43:29.684Z,14.50
2023-04-18T10:47:29.947Z,12.00
2023-04-18T10:51:29.759Z,12.00
2023-04-18T10:55:30.434Z,14.00
2023-04-18T10:59:31.323Z,10.60
2023-04-18T11:03:31.713Z,10.90
2023-04-18T11:07:31.576Z,12.20
2023-04-18T11:11:29.774Z,8.50
2023-04-18T11:15:31.004Z,9.90
2023-04-18T11:19:29.943Z,15.70
2023-04-18T11:23:29.694Z,11.10
2023-04-18T11:27:30.586Z,14.50
2023-04-18T11:31:31.251Z,13.10
2023-04-18T11:35:30.179Z,7.40
2023-04-18T11:39:33.578Z,10.90
2023-04-18T11:43:29.980Z,9.90
2023-04-18T11:47:32.899Z,12.40
2023-04-18T11:51:37.269Z,15.20
2023-04-18T11:55:29.824Z,12.70
2023-04-18T11:59:30.107Z,12.80
2023-04-18T12:03:30.066Z,11.30
2023-04-18T12:07:33.317Z,12.60
2023-04-18T12:11:29.825Z,7.90
2023-04-18T12:15:30.936Z,10.50
2023-04-18T12:19:31.622Z,11.20
2023-04-18T12:23:32.825Z,9.90
2023-04-18T12:27:48.872Z,11.00
2023-04-18T12:31:30.154Z,11.20
2023-04-18T12:35:31.632Z,9.60
2023-04-18T12:39:30.024Z,14.50
2023-04-18T12:43:29.974Z,8.70
2023-04-18T12:47:30.613Z,9.00
2023-04-18T12:51:30.424Z,12.80
2023-04-18T12:55:30.323Z,8.30
2023-04-18T12:59:29.889Z,15.10
2023-04-18T13:03:31.090Z,12.30
2023-04-18T13:07:30.508Z,9.50
2023-04-18T13:11:30.518Z,12.30
2023-04-18T13:15:30.073Z,14.30
2023-04-18T13:19:30.659Z,13.50
2023-04-18T13:23:29.961Z,12.70
2023-04-18T13:27:30.348Z,11.50
2023-04-18T13:31:30.465Z,8.60
2023-04-18T13:35:30.234Z,8.80
2023-04-18T13:39:32.236Z,8.00
2023-04-18T13:47:30.640Z,8.40
2023-04-18T13:51:30.700Z,10.70
2023-04-18T13:55:30.165Z,9.50
2023-04-18T13:59:31.141Z,9.70
2023-04-18T14:03:30.569Z,8.90
2023-04-18T14:07:30.251Z,10.00
2023-04-18T14:11:30.323Z,11.30
2023-04-18T14:15:32.067Z,8.80
2023-04-18T14:19:30.284Z,10.40
2023-04-18T14:23:30.181Z,8.30
2023-04-18T14:27:30.397Z,15.20
2023-04-18T14:31:30.300Z,9.90
2023-04-18T14:35:31.188Z,14.00
2023-04-18T14:39:30.425Z,11.30
2023-04-18T14:43:30.506Z,9.40
2023-04-18T14:47:33.545Z,11.30
2023-04-18T14:51:30.356Z,11.50
2023-04-18T14:55:32.536Z,12.60
2023-04-18T14:59:30.432Z,11.40
2023-04-18T15:03:31.127Z,11.80
2023-04-18T15:07:30.646Z,12.70
2023-04-18T15:11:30.309Z,10.10
2023-04-18T15:15:33.983Z,8.70
2023-04-18T15:19:30.871Z,8.90
2023-04-18T15:23:30.947Z,9.60
2023-04-18T15:27:30.374Z,13.50
2023-04-18T15:31:30.598Z,8.40
2023-04-18T15:35:30.523Z,8.30
2023-04-18T15:39:30.460Z,9.50
2023-04-18T15:43:30.546Z,10.30
2023-04-18T15:47:32.655Z,10.10
2023-04-18T15:51:30.602Z,9.40
2023-04-18T15:55:30.530Z,9.10
2023-04-18T16:07:30.667Z,9.20
2023-04-18T16:11:30.492Z,9.80
2023-04-18T16:15:30.760Z,12.70
2023-04-18T16:19:31.043Z,8.90
2023-04-18T16:23:31.232Z,8.70
2023-04-18T16:27:31.122Z,7.80
2023-04-18T16:31:30.763Z,9.60
2023-04-18T16:35:30.708Z,9.80
2023-04-18T16:39:30.841Z,8.60
2023-04-18T16:43:35.212Z,9.10
2023-04-18T16:47:30.695Z,8.10
2023-04-18T16:51:30.701Z,12.90
2023-04-18T16:55:30.943Z,12.90
2023-04-18T16:59:30.876Z,10.90
2023-04-18T17:03:31.684Z,11.70
2023-04-18T17:07:30.631Z,11.80
2023-04-18T17:11:33.721Z,12.30
2023-04-18T17:15:30.660Z,10.40
2023-04-18T17:19:30.819Z,9.10
2023-04-18T17:23:32.791Z,10.00
2023-04-18T17:27:30.695Z,10.60
2023-04-18T17:31:31.471Z,10.00
2023-04-18T17:35:31.333Z,8.60
2023-04-18T17:39:30.836Z,8.90
2023-04-18T17:43:30.965Z,11.40
2023-04-18T17:51:30.952Z,9.80
2023-04-18T17:55:30.918Z,18.80
2023-04-18T17:59:36.462Z,19.60
2023-04-18T18:03:31.019Z,15.90
2023-04-18T18:07:33.861Z,12.40
2023-04-18T18:11:31.008Z,9.70
2023-04-18T18:15:31.048Z,10.80
2023-04-18T18:19:30.992Z,11.60
2023-04-18T18:23:30.994Z,9.70
2023-04-18T18:27:31.013Z,10.10
2023-04-18T18:31:31.065Z,8.90
2023-04-18T18:35:30.844Z,8.80
2023-04-18T18:39:31.055Z,8.00
2023-04-18T18:43:31.514Z,9.90
2023-04-18T18:47:31.019Z,23.00
2023-04-18T18:51:31.668Z,22.70
2023-04-18T18:55:31.111Z,18.20
2023-04-18T18:59:31.049Z,20.90
2023-04-18T19:03:31.256Z,19.90
2023-04-18T19:11:31.114Z,9.50
2023-04-18T19:15:31.124Z,13.90
2023-04-18T19:19:32.182Z,11.30
2023-04-18T19:23:31.022Z,11.30
2023-04-18T19:31:31.156Z,29.80
2023-04-18T19:35:31.040Z,14.50
2023-04-18T19:39:31.103Z,11.20
2023-04-18T19:43:31.267Z,9.50
2023-04-18T19:47:32.842Z,9.60
2023-04-18T19:51:31.423Z,13.50
2023-04-18T19:55:31.303Z,11.20
2023-04-18T19:59:31.091Z,10.70
2023-04-18T20:03:32.306Z,11.70
2023-04-18T20:10:36.428Z,12.60
2023-04-18T20:15:31.209Z,11.50
2023-04-18T20:19:31.290Z,14.30
2023-04-18T20:23:31.389Z,18.00
2023-04-18T20:27:31.353Z,13.80
2023-04-18T20:35:31.302Z,21.00
2023-04-18T20:39:31.537Z,16.40
2023-04-18T20:43:35.556Z,23.00
2023-04-18T20:47:32.381Z,17.90
2023-04-18T20:51:31.499Z,17.20
2023-04-18T20:55:31.285Z,20.10
2023-04-18T20:59:31.552Z,20.50
2023-04-18T21:03:31.431Z,20.60
2023-04-18T21:11:31.583Z,29.20
2023-04-18T21:15:31.365Z,19.50
2023-04-18T21:19:31.443Z,19.10
2023-04-18T21:27:31.537Z,24.10
2023-04-18T21:31:32.529Z,25.00
2023-04-18T21:35:31.668Z,21.10
2023-04-18T21:39:31.391Z,17.30
2023-04-18T21:43:31.635Z,20.40
2023-04-18T21:47:31.866Z,19.40
2023-04-18T21:55:31.571Z,18.60
2023-04-18T22:03:32.954Z,26.00
2023-04-18T22:11:32.226Z,22.00
2023-04-18T22:15:32.306Z,21.40
2023-04-18T22:19:32.304Z,23.70
2023-04-18T22:27:32.012Z,20.70
2023-04-18T22:31:31.567Z,23.00
2023-04-18T22:35:31.800Z,18.80
2023-04-18T22:43:31.834Z,22.30
2023-04-18T22:47:32.564Z,19.80
2023-04-18T22:55:31.815Z,25.90
2023-04-18T23:03:33.276Z,22.80
2023-04-18T23:07:32.325Z,24.60
2023-04-18T23:11:31.785Z,21.90
2023-04-18T23:15:31.693Z,23.50
2023-04-18T23:19:31.790Z,26.70
2023-04-18T23:27:31.815Z,18.80
2023-04-18T23:31:31.892Z,23.80
2023-04-18T23:35:31.801Z,18.20
2023-04-18T23:39:31.842Z,23.50
2023-04-18T23:43:32.467Z,25.70
2023-04-18T23:47:31.888Z,24.90
2023-04-18T23:51:31.774Z,22.40
2023-04-18T23:55:31.772Z,19.10
2023-04-18T23:59:31.889Z,25.20
